sensor_id;sensor_type;location;lat;lon;timestamp;temperature;humidity
20698;DHT22;10508;50.956;4.640;2022-10-16T00:01:32;13.60;99.90
20698;DHT22;10508;50.956;4.640;2022-10-16T00:03:59;13.50;99.90
20698;DHT22;10508;50.956;4.640;2022-10-16T00:06:26;13.50;99.90
20698;DHT22;10508;50.956;4.640;2022-10-16T00:08:52;13.60;99.90
20698;DHT22;10508;50.956;4.640;2022-10-16T00:11:27;13.40;99.90
20698;DHT22;10508;50.956;4.640;2022-10-16T00:13:57;13.40;99.90
20698;DHT22;10508;50.956;4.640;2022-10-16T00:16:24;13.30;99.90
20698;DHT22;10508;50.956;4.640;2022-10-16T00:18:49;13.40;99.90
20698;DHT22;10508;50.956;4.640;2022-10-16T00:21:27;13.40;99.90
20698;DHT22;10508;50.956;4.640;2022-10-16T00:23:58;13.50;99.90
20698;DHT22;10508;50.956;4.640;2022-10-16T00:26:24;13.50;99.90
20698;DHT22;10508;50.956;4.640;2022-10-16T00:29:09;13.50;99.90
20698;DHT22;10508;50.956;4.640;2022-10-16T00:31:35;13.40;99.90
20698;DHT22;10508;50.956;4.640;2022-10-16T00:34:00;13.40;99.90
20698;DHT22;10508;50.956;4.640;2022-10-16T00:36:26;13.40;99.90
20698;DHT22;10508;50.956;4.640;2022-10-16T00:38:56;13.40;99.90
20698;DHT22;10508;50.956;4.640;2022-10-16T00:41:24;13.30;99.90
20698;DHT22;10508;50.956;4.640;2022-10-16T00:43:56;13.30;99.90
20698;DHT22;10508;50.956;4.640;2022-10-16T00:46:35;13.30;99.90
20698;DHT22;10508;50.956;4.640;2022-10-16T00:49:14;13.20;99.90
20698;DHT22;10508;50.956;4.640;2022-10-16T00:51:51;13.20;99.90
20698;DHT22;10508;50.956;4.640;2022-10-16T00:54:27;13.30;99.90
20698;DHT22;10508;50.956;4.640;2022-10-16T00:56:55;13.40;99.90
20698;DHT22;10508;50.956;4.640;2022-10-16T00:59:28;13.40;99.90
20698;DHT22;10508;50.956;4.640;2022-10-16T01:01:55;13.50;99.90
20698;DHT22;10508;50.956;4.640;2022-10-16T01:04:23;13.50;99.90
20698;DHT22;10508;50.956;4.640;2022-10-16T01:12:42;13.20;99.90
20698;DHT22;10508;50.956;4.640;2022-10-16T01:18:16;13.30;99.90
20698;DHT22;10508;50.956;4.640;2022-10-16T01:20:53;13.30;99.90
20698;DHT22;10508;50.956;4.640;2022-10-16T01:31:36;13.30;99.90
20698;DHT22;10508;50.956;4.640;2022-10-16T01:34:13;13.20;99.90
20698;DHT22;10508;50.956;4.640;2022-10-16T01:36:45;13.20;99.90
20698;DHT22;10508;50.956;4.640;2022-10-16T01:39:13;13.20;99.90
20698;DHT22;10508;50.956;4.640;2022-10-16T01:41:44;13.30;99.90
20698;DHT22;10508;50.956;4.640;2022-10-16T01:44:26;13.30;99.90
20698;DHT22;10508;50.956;4.640;2022-10-16T01:46:54;13.20;99.90
20698;DHT22;10508;50.956;4.640;2022-10-16T01:49:21;13.10;99.90
20698;DHT22;10508;50.956;4.640;2022-10-16T01:51:52;13.00;99.90
20698;DHT22;10508;50.956;4.640;2022-10-16T01:54:20;13.00;99.90
20698;DHT22;10508;50.956;4.640;2022-10-16T01:56:48;13.00;99.90
20698;DHT22;10508;50.956;4.640;2022-10-16T01:59:19;13.10;99.90
20698;DHT22;10508;50.956;4.640;2022-10-16T02:01:49;13.20;99.90
20698;DHT22;10508;50.956;4.640;2022-10-16T02:04:20;13.30;99.90
20698;DHT22;10508;50.956;4.640;2022-10-16T02:06:47;13.20;99.90
20698;DHT22;10508;50.956;4.640;2022-10-16T02:09:13;13.30;99.90
20698;DHT22;10508;50.956;4.640;2022-10-16T02:11:42;13.20;99.90
20698;DHT22;10508;50.956;4.640;2022-10-16T02:14:08;13.20;99.90
20698;DHT22;10508;50.956;4.640;2022-10-16T02:16:39;13.30;99.90
20698;DHT22;10508;50.956;4.640;2022-10-16T02:19:07;13.20;99.90
20698;DHT22;10508;50.956;4.640;2022-10-16T02:21:40;13.20;99.90
20698;DHT22;10508;50.956;4.640;2022-10-16T02:26:48;13.10;99.90
20698;DHT22;10508;50.956;4.640;2022-10-16T02:29:16;13.10;99.90
20698;DHT22;10508;50.956;4.640;2022-10-16T02:31:46;13.10;99.90
20698;DHT22;10508;50.956;4.640;2022-10-16T02:34:12;13.10;99.90
20698;DHT22;10508;50.956;4.640;2022-10-16T02:36:40;13.00;99.90
20698;DHT22;10508;50.956;4.640;2022-10-16T02:39:07;13.10;99.90
20698;DHT22;10508;50.956;4.640;2022-10-16T02:41:33;13.10;99.90
20698;DHT22;10508;50.956;4.640;2022-10-16T02:43:59;13.20;99.90
20698;DHT22;10508;50.956;4.640;2022-10-16T02:46:24;13.20;99.90
20698;DHT22;10508;50.956;4.640;2022-10-16T02:48:50;13.10;99.90
20698;DHT22;10508;50.956;4.640;2022-10-16T02:51:16;13.10;99.90
20698;DHT22;10508;50.956;4.640;2022-10-16T02:53:41;13.10;99.90
20698;DHT22;10508;50.956;4.640;2022-10-16T02:56:07;13.00;99.90
20698;DHT22;10508;50.956;4.640;2022-10-16T02:58:33;13.00;99.90
20698;DHT22;10508;50.956;4.640;2022-10-16T03:00:58;12.90;99.90
20698;DHT22;10508;50.956;4.640;2022-10-16T03:03:24;12.90;99.90
20698;DHT22;10508;50.956;4.640;2022-10-16T03:05:49;12.90;99.90
20698;DHT22;10508;50.956;4.640;2022-10-16T03:08:15;12.90;99.90
20698;DHT22;10508;50.956;4.640;2022-10-16T03:10:41;13.00;99.90
20698;DHT22;10508;50.956;4.640;2022-10-16T03:13:06;13.00;99.90
20698;DHT22;10508;50.956;4.640;2022-10-16T03:15:32;13.00;99.90
20698;DHT22;10508;50.956;4.640;2022-10-16T03:17:58;13.00;99.90
20698;DHT22;10508;50.956;4.640;2022-10-16T03:20:24;13.00;99.90
20698;DHT22;10508;50.956;4.640;2022-10-16T03:22:50;13.10;99.90
20698;DHT22;10508;50.956;4.640;2022-10-16T03:25:15;13.10;99.90
20698;DHT22;10508;50.956;4.640;2022-10-16T03:27:41;13.10;99.90
20698;DHT22;10508;50.956;4.640;2022-10-16T03:30:07;13.10;99.90
20698;DHT22;10508;50.956;4.640;2022-10-16T03:32:33;13.20;99.90
20698;DHT22;10508;50.956;4.640;2022-10-16T03:34:59;13.20;99.90
20698;DHT22;10508;50.956;4.640;2022-10-16T03:37:24;13.20;99.90
20698;DHT22;10508;50.956;4.640;2022-10-16T03:39:50;13.20;99.90
20698;DHT22;10508;50.956;4.640;2022-10-16T03:42:16;13.30;99.90
20698;DHT22;10508;50.956;4.640;2022-10-16T03:44:41;13.30;99.90
20698;DHT22;10508;50.956;4.640;2022-10-16T03:47:07;13.20;99.90
20698;DHT22;10508;50.956;4.640;2022-10-16T03:49:32;13.20;99.90
20698;DHT22;10508;50.956;4.640;2022-10-16T03:51:58;13.20;99.90
20698;DHT22;10508;50.956;4.640;2022-10-16T03:54:23;13.20;99.90
20698;DHT22;10508;50.956;4.640;2022-10-16T03:56:49;13.20;99.90
20698;DHT22;10508;50.956;4.640;2022-10-16T03:59:15;13.30;99.90
20698;DHT22;10508;50.956;4.640;2022-10-16T04:01:40;13.30;99.90
20698;DHT22;10508;50.956;4.640;2022-10-16T04:04:06;13.30;99.90
20698;DHT22;10508;50.956;4.640;2022-10-16T04:06:31;13.30;99.90
20698;DHT22;10508;50.956;4.640;2022-10-16T04:08:57;13.20;99.90
20698;DHT22;10508;50.956;4.640;2022-10-16T04:11:23;13.20;99.90
20698;DHT22;10508;50.956;4.640;2022-10-16T04:13:48;13.10;99.90
20698;DHT22;10508;50.956;4.640;2022-10-16T04:16:14;13.10;99.90
20698;DHT22;10508;50.956;4.640;2022-10-16T04:18:39;13.10;99.90
20698;DHT22;10508;50.956;4.640;2022-10-16T04:21:06;13.20;99.90
20698;DHT22;10508;50.956;4.640;2022-10-16T04:23:32;13.20;99.90
20698;DHT22;10508;50.956;4.640;2022-10-16T04:25:57;13.10;99.90
20698;DHT22;10508;50.956;4.640;2022-10-16T04:28:23;13.10;99.90
20698;DHT22;10508;50.956;4.640;2022-10-16T04:30:49;13.00;99.90
20698;DHT22;10508;50.956;4.640;2022-10-16T04:33:14;13.10;99.90
20698;DHT22;10508;50.956;4.640;2022-10-16T04:35:40;13.10;99.90
20698;DHT22;10508;50.956;4.640;2022-10-16T04:38:05;13.20;99.90
20698;DHT22;10508;50.956;4.640;2022-10-16T04:40:31;13.20;99.90
20698;DHT22;10508;50.956;4.640;2022-10-16T04:43:02;13.20;99.90
20698;DHT22;10508;50.956;4.640;2022-10-16T04:45:29;13.10;99.90
20698;DHT22;10508;50.956;4.640;2022-10-16T04:47:57;13.00;99.90
20698;DHT22;10508;50.956;4.640;2022-10-16T04:50:23;13.00;99.90
20698;DHT22;10508;50.956;4.640;2022-10-16T04:52:49;12.90;99.90
20698;DHT22;10508;50.956;4.640;2022-10-16T04:55:14;12.90;99.90
20698;DHT22;10508;50.956;4.640;2022-10-16T04:57:41;12.90;99.90
20698;DHT22;10508;50.956;4.640;2022-10-16T05:00:07;12.90;99.90
20698;DHT22;10508;50.956;4.640;2022-10-16T05:02:33;12.90;99.90
20698;DHT22;10508;50.956;4.640;2022-10-16T05:04:59;12.80;99.90
20698;DHT22;10508;50.956;4.640;2022-10-16T05:07:24;12.80;99.90
20698;DHT22;10508;50.956;4.640;2022-10-16T05:09:50;13.00;99.90
20698;DHT22;10508;50.956;4.640;2022-10-16T05:12:16;12.90;99.90
20698;DHT22;10508;50.956;4.640;2022-10-16T05:14:41;12.90;99.90
20698;DHT22;10508;50.956;4.640;2022-10-16T05:17:07;12.90;99.90
20698;DHT22;10508;50.956;4.640;2022-10-16T05:19:33;12.80;99.90
20698;DHT22;10508;50.956;4.640;2022-10-16T05:21:58;12.70;99.90
20698;DHT22;10508;50.956;4.640;2022-10-16T05:24:24;12.70;99.90
20698;DHT22;10508;50.956;4.640;2022-10-16T05:26:50;12.70;99.90
20698;DHT22;10508;50.956;4.640;2022-10-16T05:29:16;12.70;99.90
20698;DHT22;10508;50.956;4.640;2022-10-16T05:31:41;12.80;99.90
20698;DHT22;10508;50.956;4.640;2022-10-16T05:34:07;12.90;99.90
20698;DHT22;10508;50.956;4.640;2022-10-16T05:36:33;12.90;99.90
20698;DHT22;10508;50.956;4.640;2022-10-16T05:38:58;13.00;99.90
20698;DHT22;10508;50.956;4.640;2022-10-16T05:41:24;12.90;99.90
20698;DHT22;10508;50.956;4.640;2022-10-16T05:43:51;12.90;99.90
20698;DHT22;10508;50.956;4.640;2022-10-16T05:46:17;12.80;99.90
20698;DHT22;10508;50.956;4.640;2022-10-16T05:48:43;12.70;99.90
20698;DHT22;10508;50.956;4.640;2022-10-16T05:51:11;12.70;99.90
20698;DHT22;10508;50.956;4.640;2022-10-16T05:53:38;12.70;99.90
20698;DHT22;10508;50.956;4.640;2022-10-16T05:56:05;12.60;99.90
20698;DHT22;10508;50.956;4.640;2022-10-16T05:58:33;12.70;99.90
20698;DHT22;10508;50.956;4.640;2022-10-16T06:01:05;12.70;99.90
20698;DHT22;10508;50.956;4.640;2022-10-16T06:03:32;12.70;99.90
20698;DHT22;10508;50.956;4.640;2022-10-16T06:05:58;12.60;99.90
20698;DHT22;10508;50.956;4.640;2022-10-16T06:08:23;12.70;99.90
20698;DHT22;10508;50.956;4.640;2022-10-16T06:11:03;12.60;99.90
20698;DHT22;10508;50.956;4.640;2022-10-16T06:13:29;12.80;99.90
20698;DHT22;10508;50.956;4.640;2022-10-16T06:15:57;12.80;99.90
20698;DHT22;10508;50.956;4.640;2022-10-16T06:18:24;12.70;99.90
20698;DHT22;10508;50.956;4.640;2022-10-16T06:20:49;12.70;99.90
20698;DHT22;10508;50.956;4.640;2022-10-16T06:23:15;12.60;99.90
20698;DHT22;10508;50.956;4.640;2022-10-16T06:25:41;12.70;99.90
20698;DHT22;10508;50.956;4.640;2022-10-16T06:28:06;12.70;99.90
20698;DHT22;10508;50.956;4.640;2022-10-16T06:30:32;12.70;99.90
20698;DHT22;10508;50.956;4.640;2022-10-16T06:32:57;12.60;99.90
20698;DHT22;10508;50.956;4.640;2022-10-16T06:35:23;12.60;99.90
20698;DHT22;10508;50.956;4.640;2022-10-16T06:37:49;12.60;99.90
20698;DHT22;10508;50.956;4.640;2022-10-16T06:40:15;12.70;99.90
20698;DHT22;10508;50.956;4.640;2022-10-16T06:42:41;12.70;99.90
20698;DHT22;10508;50.956;4.640;2022-10-16T06:45:07;12.80;99.90
20698;DHT22;10508;50.956;4.640;2022-10-16T06:47:32;12.80;99.90
20698;DHT22;10508;50.956;4.640;2022-10-16T06:49:58;12.80;99.90
20698;DHT22;10508;50.956;4.640;2022-10-16T06:52:24;12.80;99.90
20698;DHT22;10508;50.956;4.640;2022-10-16T06:54:50;12.90;99.90
20698;DHT22;10508;50.956;4.640;2022-10-16T06:57:16;12.90;99.90
20698;DHT22;10508;50.956;4.640;2022-10-16T06:59:41;13.00;99.90
20698;DHT22;10508;50.956;4.640;2022-10-16T07:02:08;13.00;99.90
20698;DHT22;10508;50.956;4.640;2022-10-16T07:04:36;13.00;99.90
20698;DHT22;10508;50.956;4.640;2022-10-16T07:07:01;13.10;99.90
20698;DHT22;10508;50.956;4.640;2022-10-16T07:09:27;13.20;99.90
20698;DHT22;10508;50.956;4.640;2022-10-16T07:11:53;13.20;99.90
20698;DHT22;10508;50.956;4.640;2022-10-16T07:14:20;13.30;99.90
20698;DHT22;10508;50.956;4.640;2022-10-16T07:16:47;13.30;99.90
20698;DHT22;10508;50.956;4.640;2022-10-16T07:19:14;13.40;99.90
20698;DHT22;10508;50.956;4.640;2022-10-16T07:21:41;13.40;99.90
20698;DHT22;10508;50.956;4.640;2022-10-16T07:24:11;13.40;99.90
20698;DHT22;10508;50.956;4.640;2022-10-16T07:26:38;13.50;99.90
20698;DHT22;10508;50.956;4.640;2022-10-16T07:29:15;13.60;99.90
20698;DHT22;10508;50.956;4.640;2022-10-16T07:31:41;13.60;99.90
20698;DHT22;10508;50.956;4.640;2022-10-16T07:34:07;13.60;99.90
20698;DHT22;10508;50.956;4.640;2022-10-16T07:36:33;13.70;99.90
20698;DHT22;10508;50.956;4.640;2022-10-16T07:38:58;13.70;99.90
20698;DHT22;10508;50.956;4.640;2022-10-16T07:41:24;13.80;99.90
20698;DHT22;10508;50.956;4.640;2022-10-16T07:43:52;13.90;99.90
20698;DHT22;10508;50.956;4.640;2022-10-16T07:46:19;13.90;99.90
20698;DHT22;10508;50.956;4.640;2022-10-16T07:48:45;14.00;99.90
20698;DHT22;10508;50.956;4.640;2022-10-16T07:51:14;14.10;99.90
20698;DHT22;10508;50.956;4.640;2022-10-16T07:53:40;14.20;99.90
20698;DHT22;10508;50.956;4.640;2022-10-16T07:56:07;14.30;99.90
20698;DHT22;10508;50.956;4.640;2022-10-16T07:58:34;14.50;99.90
20698;DHT22;10508;50.956;4.640;2022-10-16T08:01:07;14.60;99.90
20698;DHT22;10508;50.956;4.640;2022-10-16T08:03:33;14.70;99.90
20698;DHT22;10508;50.956;4.640;2022-10-16T08:05:59;14.70;99.90
20698;DHT22;10508;50.956;4.640;2022-10-16T08:08:26;14.80;99.90
20698;DHT22;10508;50.956;4.640;2022-10-16T08:10:52;15.10;99.90
20698;DHT22;10508;50.956;4.640;2022-10-16T08:13:18;15.10;99.90
20698;DHT22;10508;50.956;4.640;2022-10-16T08:15:44;15.20;99.90
20698;DHT22;10508;50.956;4.640;2022-10-16T08:18:12;15.40;99.90
20698;DHT22;10508;50.956;4.640;2022-10-16T08:20:38;15.40;99.90
20698;DHT22;10508;50.956;4.640;2022-10-16T08:23:04;15.60;99.90
20698;DHT22;10508;50.956;4.640;2022-10-16T08:25:30;15.70;99.90
20698;DHT22;10508;50.956;4.640;2022-10-16T08:27:56;15.90;99.90
20698;DHT22;10508;50.956;4.640;2022-10-16T08:30:23;16.00;99.90
20698;DHT22;10508;50.956;4.640;2022-10-16T08:32:49;16.10;99.90
20698;DHT22;10508;50.956;4.640;2022-10-16T08:35:15;16.20;99.90
20698;DHT22;10508;50.956;4.640;2022-10-16T08:37:41;16.40;99.90
20698;DHT22;10508;50.956;4.640;2022-10-16T08:40:33;16.50;99.90
20698;DHT22;10508;50.956;4.640;2022-10-16T08:48:27;17.10;99.90
20698;DHT22;10508;50.956;4.640;2022-10-16T08:50:55;17.20;99.90
20698;DHT22;10508;50.956;4.640;2022-10-16T08:53:31;17.30;99.90
20698;DHT22;10508;50.956;4.640;2022-10-16T08:56:00;17.50;99.90
20698;DHT22;10508;50.956;4.640;2022-10-16T08:58:27;17.60;99.90
20698;DHT22;10508;50.956;4.640;2022-10-16T09:00:55;17.70;99.90
20698;DHT22;10508;50.956;4.640;2022-10-16T09:09:16;18.40;99.90
20698;DHT22;10508;50.956;4.640;2022-10-16T09:12:04;18.50;99.90
20698;DHT22;10508;50.956;4.640;2022-10-16T09:17:39;18.60;99.90
20698;DHT22;10508;50.956;4.640;2022-10-16T09:20:49;18.80;99.90
20698;DHT22;10508;50.956;4.640;2022-10-16T09:23:25;19.20;99.90
20698;DHT22;10508;50.956;4.640;2022-10-16T09:26:05;19.60;99.90
20698;DHT22;10508;50.956;4.640;2022-10-16T09:28:34;19.80;99.90
20698;DHT22;10508;50.956;4.640;2022-10-16T09:31:00;20.10;99.90
20698;DHT22;10508;50.956;4.640;2022-10-16T09:33:35;20.50;99.90
20698;DHT22;10508;50.956;4.640;2022-10-16T09:36:03;21.00;99.90
20698;DHT22;10508;50.956;4.640;2022-10-16T09:38:32;21.50;99.90
20698;DHT22;10508;50.956;4.640;2022-10-16T09:41:00;22.30;99.90
20698;DHT22;10508;50.956;4.640;2022-10-16T09:43:26;23.20;99.40
20698;DHT22;10508;50.956;4.640;2022-10-16T09:46:05;23.20;98.40
20698;DHT22;10508;50.956;4.640;2022-10-16T09:48:37;24.10;96.80
20698;DHT22;10508;50.956;4.640;2022-10-16T09:51:06;25.00;95.80
20698;DHT22;10508;50.956;4.640;2022-10-16T09:56:05;26.50;92.60
20698;DHT22;10508;50.956;4.640;2022-10-16T09:58:32;27.70;91.50
20698;DHT22;10508;50.956;4.640;2022-10-16T10:00:59;28.00;87.30
20698;DHT22;10508;50.956;4.640;2022-10-16T10:03:40;28.10;88.60
20698;DHT22;10508;50.956;4.640;2022-10-16T10:06:44;27.70;85.70
20698;DHT22;10508;50.956;4.640;2022-10-16T10:09:20;28.00;87.10
20698;DHT22;10508;50.956;4.640;2022-10-16T10:11:57;28.80;83.20
20698;DHT22;10508;50.956;4.640;2022-10-16T10:14:38;29.60;83.20
20698;DHT22;10508;50.956;4.640;2022-10-16T10:22:28;29.70;77.90
20698;DHT22;10508;50.956;4.640;2022-10-16T10:24:56;28.70;78.80
20698;DHT22;10508;50.956;4.640;2022-10-16T10:27:35;29.00;81.00
20698;DHT22;10508;50.956;4.640;2022-10-16T10:30:07;29.70;77.90
20698;DHT22;10508;50.956;4.640;2022-10-16T10:33:12;29.80;77.00
20698;DHT22;10508;50.956;4.640;2022-10-16T10:47:01;28.10;80.50
20698;DHT22;10508;50.956;4.640;2022-10-16T10:49:56;28.60;78.20
20698;DHT22;10508;50.956;4.640;2022-10-16T10:55:42;29.00;78.40
20698;DHT22;10508;50.956;4.640;2022-10-16T10:58:24;28.30;77.10
20698;DHT22;10508;50.956;4.640;2022-10-16T11:04:02;26.50;80.10
20698;DHT22;10508;50.956;4.640;2022-10-16T11:06:48;25.20;84.80
20698;DHT22;10508;50.956;4.640;2022-10-16T11:09:24;24.20;88.70
20698;DHT22;10508;50.956;4.640;2022-10-16T11:14:42;24.50;88.60
20698;DHT22;10508;50.956;4.640;2022-10-16T11:17:22;26.10;86.70
20698;DHT22;10508;50.956;4.640;2022-10-16T11:22:58;25.60;83.40
20698;DHT22;10508;50.956;4.640;2022-10-16T11:25:31;24.40;83.30
20698;DHT22;10508;50.956;4.640;2022-10-16T11:33:45;22.70;90.50
20698;DHT22;10508;50.956;4.640;2022-10-16T11:36:26;22.80;90.60
20698;DHT22;10508;50.956;4.640;2022-10-16T11:39:17;22.70;91.10
20698;DHT22;10508;50.956;4.640;2022-10-16T11:47:36;23.60;88.80
20698;DHT22;10508;50.956;4.640;2022-10-16T11:55:36;24.20;87.10
20698;DHT22;10508;50.956;4.640;2022-10-16T12:06:57;22.60;90.80
20698;DHT22;10508;50.956;4.640;2022-10-16T12:09:28;22.30;91.30
20698;DHT22;10508;50.956;4.640;2022-10-16T12:11:54;22.10;91.90
20698;DHT22;10508;50.956;4.640;2022-10-16T12:17:22;22.00;93.60
20698;DHT22;10508;50.956;4.640;2022-10-16T12:22:55;22.00;93.80
20698;DHT22;10508;50.956;4.640;2022-10-16T12:25:41;22.10;92.70
20698;DHT22;10508;50.956;4.640;2022-10-16T12:30:41;22.10;91.40
20698;DHT22;10508;50.956;4.640;2022-10-16T12:33:21;22.10;92.10
20698;DHT22;10508;50.956;4.640;2022-10-16T12:35:48;22.20;91.40
20698;DHT22;10508;50.956;4.640;2022-10-16T12:40:43;22.10;91.30
20698;DHT22;10508;50.956;4.640;2022-10-16T12:43:34;22.00;91.80
20698;DHT22;10508;50.956;4.640;2022-10-16T12:48:33;22.10;92.00
20698;DHT22;10508;50.956;4.640;2022-10-16T12:54:14;22.20;92.00
20698;DHT22;10508;50.956;4.640;2022-10-16T12:56:50;21.80;91.80
20698;DHT22;10508;50.956;4.640;2022-10-16T13:02:38;21.30;92.80
20698;DHT22;10508;50.956;4.640;2022-10-16T13:08:21;20.90;93.20
20698;DHT22;10508;50.956;4.640;2022-10-16T13:11:15;20.90;94.50
20698;DHT22;10508;50.956;4.640;2022-10-16T13:14:03;21.10;94.90
20698;DHT22;10508;50.956;4.640;2022-10-16T13:16:54;21.20;94.20
20698;DHT22;10508;50.956;4.640;2022-10-16T13:19:43;21.50;94.20
20698;DHT22;10508;50.956;4.640;2022-10-16T13:22:24;21.70;92.90
20698;DHT22;10508;50.956;4.640;2022-10-16T13:28:04;21.60;93.00
20698;DHT22;10508;50.956;4.640;2022-10-16T13:30:37;21.60;93.90
20698;DHT22;10508;50.956;4.640;2022-10-16T13:35:35;21.40;93.50
20698;DHT22;10508;50.956;4.640;2022-10-16T13:38:18;21.20;94.20
20698;DHT22;10508;50.956;4.640;2022-10-16T13:40:54;21.00;93.00
20698;DHT22;10508;50.956;4.640;2022-10-16T13:43:36;21.00;93.30
20698;DHT22;10508;50.956;4.640;2022-10-16T13:46:05;21.00;93.50
20698;DHT22;10508;50.956;4.640;2022-10-16T13:48:32;21.00;93.00
20698;DHT22;10508;50.956;4.640;2022-10-16T13:51:05;20.90;93.60
20698;DHT22;10508;50.956;4.640;2022-10-16T13:53:35;20.80;93.70
20698;DHT22;10508;50.956;4.640;2022-10-16T13:56:06;20.90;94.10
20698;DHT22;10508;50.956;4.640;2022-10-16T13:58:33;20.80;94.10
20698;DHT22;10508;50.956;4.640;2022-10-16T14:01:02;20.80;94.30
20698;DHT22;10508;50.956;4.640;2022-10-16T14:03:28;20.80;94.20
20698;DHT22;10508;50.956;4.640;2022-10-16T14:06:00;20.70;94.10
20698;DHT22;10508;50.956;4.640;2022-10-16T14:08:28;20.70;94.30
20698;DHT22;10508;50.956;4.640;2022-10-16T14:10:57;20.50;94.60
20698;DHT22;10508;50.956;4.640;2022-10-16T14:15:54;20.60;95.30
20698;DHT22;10508;50.956;4.640;2022-10-16T14:18:22;20.70;94.60
20698;DHT22;10508;50.956;4.640;2022-10-16T14:20:49;20.70;94.50
20698;DHT22;10508;50.956;4.640;2022-10-16T14:25:44;20.40;94.80
20698;DHT22;10508;50.956;4.640;2022-10-16T14:30:55;20.40;95.40
20698;DHT22;10508;50.956;4.640;2022-10-16T14:36:11;20.20;95.00
20698;DHT22;10508;50.956;4.640;2022-10-16T14:38:47;20.30;95.50
20698;DHT22;10508;50.956;4.640;2022-10-16T14:41:13;20.40;95.30
20698;DHT22;10508;50.956;4.640;2022-10-16T14:43:42;20.40;95.60
20698;DHT22;10508;50.956;4.640;2022-10-16T14:46:19;20.40;95.60
20698;DHT22;10508;50.956;4.640;2022-10-16T14:48:50;20.30;95.40
20698;DHT22;10508;50.956;4.640;2022-10-16T14:51:19;20.20;95.80
20698;DHT22;10508;50.956;4.640;2022-10-16T14:53:46;20.30;96.10
20698;DHT22;10508;50.956;4.640;2022-10-16T14:56:20;20.30;95.70
20698;DHT22;10508;50.956;4.640;2022-10-16T14:58:46;20.20;95.70
20698;DHT22;10508;50.956;4.640;2022-10-16T15:01:12;20.10;95.90
20698;DHT22;10508;50.956;4.640;2022-10-16T15:03:38;20.20;96.10
20698;DHT22;10508;50.956;4.640;2022-10-16T15:06:13;20.10;95.90
20698;DHT22;10508;50.956;4.640;2022-10-16T15:08:39;20.10;96.00
20698;DHT22;10508;50.956;4.640;2022-10-16T15:11:10;20.00;96.20
20698;DHT22;10508;50.956;4.640;2022-10-16T15:13:37;19.90;96.00
20698;DHT22;10508;50.956;4.640;2022-10-16T15:16:03;19.80;96.10
20698;DHT22;10508;50.956;4.640;2022-10-16T15:18:28;19.80;96.60
20698;DHT22;10508;50.956;4.640;2022-10-16T15:20:54;19.90;97.30
20698;DHT22;10508;50.956;4.640;2022-10-16T15:23:21;19.90;97.80
20698;DHT22;10508;50.956;4.640;2022-10-16T15:25:52;19.90;97.10
20698;DHT22;10508;50.956;4.640;2022-10-16T15:28:19;19.90;97.90
20698;DHT22;10508;50.956;4.640;2022-10-16T15:30:46;19.80;97.70
20698;DHT22;10508;50.956;4.640;2022-10-16T15:33:23;19.80;97.60
20698;DHT22;10508;50.956;4.640;2022-10-16T15:35:51;19.80;97.50
20698;DHT22;10508;50.956;4.640;2022-10-16T15:38:18;19.70;97.80
20698;DHT22;10508;50.956;4.640;2022-10-16T15:40:45;19.60;97.80
20698;DHT22;10508;50.956;4.640;2022-10-16T15:43:11;19.50;98.80
20698;DHT22;10508;50.956;4.640;2022-10-16T15:45:37;19.40;99.20
20698;DHT22;10508;50.956;4.640;2022-10-16T15:48:02;19.30;99.90
20698;DHT22;10508;50.956;4.640;2022-10-16T15:50:30;19.20;99.90
20698;DHT22;10508;50.956;4.640;2022-10-16T15:52:56;19.10;99.90
20698;DHT22;10508;50.956;4.640;2022-10-16T15:55:21;19.20;99.90
20698;DHT22;10508;50.956;4.640;2022-10-16T15:57:47;19.30;99.90
20698;DHT22;10508;50.956;4.640;2022-10-16T16:00:18;19.30;99.90
20698;DHT22;10508;50.956;4.640;2022-10-16T16:02:51;19.30;99.90
20698;DHT22;10508;50.956;4.640;2022-10-16T16:05:18;19.10;99.90
20698;DHT22;10508;50.956;4.640;2022-10-16T16:07:43;19.10;99.90
20698;DHT22;10508;50.956;4.640;2022-10-16T16:10:11;19.00;99.90
20698;DHT22;10508;50.956;4.640;2022-10-16T16:12:37;19.00;99.90
20698;DHT22;10508;50.956;4.640;2022-10-16T16:15:08;19.00;99.90
20698;DHT22;10508;50.956;4.640;2022-10-16T16:17:35;18.80;99.90
20698;DHT22;10508;50.956;4.640;2022-10-16T16:20:01;18.80;99.90
20698;DHT22;10508;50.956;4.640;2022-10-16T16:22:27;18.90;99.90
20698;DHT22;10508;50.956;4.640;2022-10-16T16:24:53;18.70;99.90
20698;DHT22;10508;50.956;4.640;2022-10-16T16:27:19;18.60;99.90
20698;DHT22;10508;50.956;4.640;2022-10-16T16:29:49;18.50;99.90
20698;DHT22;10508;50.956;4.640;2022-10-16T16:32:15;18.40;99.90
20698;DHT22;10508;50.956;4.640;2022-10-16T16:34:41;18.40;99.90
20698;DHT22;10508;50.956;4.640;2022-10-16T16:37:07;18.40;99.90
20698;DHT22;10508;50.956;4.640;2022-10-16T16:39:32;18.60;99.90
20698;DHT22;10508;50.956;4.640;2022-10-16T16:41:58;18.60;99.90
20698;DHT22;10508;50.956;4.640;2022-10-16T16:44:24;18.50;99.90
20698;DHT22;10508;50.956;4.640;2022-10-16T16:46:50;18.40;99.90
20698;DHT22;10508;50.956;4.640;2022-10-16T16:49:15;18.20;99.90
20698;DHT22;10508;50.956;4.640;2022-10-16T16:51:41;18.20;99.90
20698;DHT22;10508;50.956;4.640;2022-10-16T16:54:07;18.00;99.90
20698;DHT22;10508;50.956;4.640;2022-10-16T16:56:34;18.10;99.90
20698;DHT22;10508;50.956;4.640;2022-10-16T16:59:00;18.00;99.90
20698;DHT22;10508;50.956;4.640;2022-10-16T17:01:27;18.00;99.90
20698;DHT22;10508;50.956;4.640;2022-10-16T17:03:55;18.20;99.90
20698;DHT22;10508;50.956;4.640;2022-10-16T17:06:22;18.10;99.90
20698;DHT22;10508;50.956;4.640;2022-10-16T17:08:49;18.10;99.90
20698;DHT22;10508;50.956;4.640;2022-10-16T17:11:20;18.00;99.90
20698;DHT22;10508;50.956;4.640;2022-10-16T17:13:47;18.00;99.90
20698;DHT22;10508;50.956;4.640;2022-10-16T17:16:13;18.20;99.90
20698;DHT22;10508;50.956;4.640;2022-10-16T17:18:50;18.20;99.90
20698;DHT22;10508;50.956;4.640;2022-10-16T17:21:18;18.20;99.90
20698;DHT22;10508;50.956;4.640;2022-10-16T17:23:44;18.10;99.90
20698;DHT22;10508;50.956;4.640;2022-10-16T17:26:15;18.00;99.90
20698;DHT22;10508;50.956;4.640;2022-10-16T17:28:41;17.70;99.90
20698;DHT22;10508;50.956;4.640;2022-10-16T17:31:16;17.70;99.90
20698;DHT22;10508;50.956;4.640;2022-10-16T17:33:42;17.70;99.90
20698;DHT22;10508;50.956;4.640;2022-10-16T17:36:08;17.70;99.90
20698;DHT22;10508;50.956;4.640;2022-10-16T17:38:36;17.60;99.90
20698;DHT22;10508;50.956;4.640;2022-10-16T17:41:21;17.40;99.90
20698;DHT22;10508;50.956;4.640;2022-10-16T17:43:47;17.40;99.90
20698;DHT22;10508;50.956;4.640;2022-10-16T17:46:16;17.50;99.90
20698;DHT22;10508;50.956;4.640;2022-10-16T17:48:47;17.30;99.90
20698;DHT22;10508;50.956;4.640;2022-10-16T17:51:18;17.30;99.90
20698;DHT22;10508;50.956;4.640;2022-10-16T17:53:50;17.20;99.90